createdAt,value
2023-04-18T00:01:06.311Z,80.38
2023-04-18T00:03:32.970Z,79.70
2023-04-18T00:05:59.753Z,79.43
2023-04-18T00:08:26.281Z,80.47
2023-04-18T00:10:54.021Z,80.43
2023-04-18T00:13:20.669Z,79.78
2023-04-18T00:15:47.254Z,79.34
2023-04-18T00:18:17.200Z,78.82
2023-04-18T00:20:44.018Z,78.97
2023-04-18T00:23:14.010Z,77.55
2023-04-18T00:25:41.108Z,77.74
2023-04-18T00:28:07.822Z,77.02
2023-04-18T00:30:34.498Z,74.71
2023-04-18T00:33:01.472Z,75.45
2023-04-18T00:35:28.145Z,73.98
2023-04-18T00:37:54.761Z,74.14
2023-04-18T00:40:21.319Z,74.11
2023-04-18T00:42:47.892Z,74.27
2023-04-18T00:45:14.541Z,73.28
2023-04-18T00:47:41.250Z,72.82
2023-04-18T00:50:09.731Z,73.49
2023-04-18T00:52:36.960Z,74.06
2023-04-18T00:55:06.160Z,74.38
2023-04-18T00:57:33.217Z,74.88
2023-04-18T01:00:01.466Z,75.55
2023-04-18T01:02:30.473Z,75.58
2023-04-18T01:04:58.617Z,75.90
2023-04-18T01:07:26.794Z,76.12
2023-04-18T01:09:54.276Z,76.54
2023-04-18T01:12:20.888Z,76.61
2023-04-18T01:14:47.465Z,75.77
2023-04-18T01:17:14.035Z,75.04
2023-04-18T01:19:40.803Z,75.11
2023-04-18T01:22:07.399Z,76.02
2023-04-18T01:24:34.201Z,74.79
2023-04-18T01:27:03.049Z,74.13
2023-04-18T01:29:29.710Z,74.34
2023-04-18T01:31:56.304Z,74.28
2023-04-18T01:34:23.250Z,74.25
2023-04-18T01:36:49.861Z,73.95
2023-04-18T01:39:18.317Z,73.53
2023-04-18T01:41:45.072Z,73.81
2023-04-18T01:44:11.942Z,73.81
2023-04-18T01:46:39.920Z,73.65
2023-04-18T01:49:07.820Z,73.71
2023-04-18T01:51:34.428Z,73.70
2023-04-18T01:54:01.083Z,73.92
2023-04-18T01:56:27.625Z,73.70
2023-04-18T01:58:54.176Z,74.16
2023-04-18T02:01:20.884Z,74.42
2023-04-18T02:03:47.685Z,74.15
2023-04-18T02:06:14.377Z,73.95
2023-04-18T02:08:40.997Z,73.84
2023-04-18T02:11:07.871Z,74.15
2023-04-18T02:13:34.502Z,75.04
2023-04-18T02:16:01.066Z,74.00
2023-04-18T02:18:27.757Z,74.45
2023-04-18T02:20:54.339Z,74.39
2023-04-18T02:23:20.890Z,73.57
2023-04-18T02:25:47.529Z,74.71
2023-04-18T02:28:15.392Z,74.87
2023-04-18T02:30:42.009Z,74.34
2023-04-18T02:33:08.802Z,74.03
2023-04-18T02:35:37.262Z,75.06
2023-04-18T02:38:04.102Z,75.21
2023-04-18T02:40:30.738Z,75.36
2023-04-18T02:42:58.123Z,75.46
2023-04-18T02:45:24.764Z,76.50
2023-04-18T02:47:55.482Z,75.29
2023-04-18T02:50:22.990Z,74.75
2023-04-18T02:52:49.546Z,74.83
2023-04-18T02:55:16.300Z,74.91
2023-04-18T02:57:43.053Z,74.95
2023-04-18T03:00:10.112Z,75.16
2023-04-18T03:02:36.782Z,75.00
2023-04-18T03:05:03.580Z,75.33
2023-04-18T03:07:30.941Z,75.31
2023-04-18T03:09:57.861Z,74.87
2023-04-18T03:12:24.480Z,75.22
2023-04-18T03:14:51.093Z,74.65
2023-04-18T03:17:18.294Z,75.35
2023-04-18T03:19:46.227Z,75.03
2023-04-18T03:22:13.949Z,74.95
2023-04-18T03:24:40.615Z,75.04
2023-04-18T03:27:07.291Z,75.64
2023-04-18T03:29:34.033Z,76.74
2023-04-18T03:32:00.724Z,76.26
2023-04-18T03:34:27.430Z,75.30
2023-04-18T03:36:54.182Z,75.86
2023-04-18T03:39:20.914Z,76.10
2023-04-18T03:41:47.578Z,74.94
2023-04-18T03:44:14.319Z,75.69
2023-04-18T03:46:41.626Z,75.19
2023-04-18T03:49:08.515Z,75.93
2023-04-18T03:51:43.794Z,77.06
2023-04-18T03:54:10.344Z,75.74
2023-04-18T03:56:37.024Z,76.66
2023-04-18T03:59:03.703Z,76.56
2023-04-18T04:01:30.409Z,75.32
2023-04-18T04:03:57.085Z,75.92
2023-04-18T04:06:24.400Z,75.76
2023-04-18T04:08:50.946Z,75.99
2023-04-18T04:11:17.553Z,76.40
2023-04-18T04:13:44.122Z,75.90
2023-04-18T04:16:10.757Z,76.27
2023-04-18T04:18:37.351Z,76.96
2023-04-18T04:21:04.929Z,76.57
2023-04-18T04:23:31.529Z,76.05
2023-04-18T04:25:58.689Z,76.63
2023-04-18T04:28:26.201Z,75.85
2023-04-18T04:30:53.178Z,76.31
2023-04-18T04:33:21.247Z,76.32
2023-04-18T04:35:47.971Z,76.22
2023-04-18T04:38:15.354Z,76.24
2023-04-18T04:40:45.024Z,77.61
2023-04-18T04:43:12.594Z,76.96
2023-04-18T04:45:41.991Z,76.54
2023-04-18T04:48:09.678Z,77.30
2023-04-18T04:50:38.865Z,76.81
2023-04-18T04:53:06.362Z,76.65
2023-04-18T04:55:33.681Z,76.64
2023-04-18T04:58:00.732Z,76.52
2023-04-18T05:00:28.823Z,76.88
2023-04-18T05:02:57.597Z,77.19
2023-04-18T05:05:24.314Z,77.45
2023-04-18T05:07:51.067Z,77.07
2023-04-18T05:10:17.789Z,77.18
2023-04-18T05:12:44.470Z,77.27
2023-04-18T05:15:11.242Z,77.45
2023-04-18T05:17:37.832Z,76.89
2023-04-18T05:20:05.623Z,77.37
2023-04-18T05:22:35.971Z,77.28
2023-04-18T05:25:02.857Z,77.29
2023-04-18T05:27:29.558Z,77.38
2023-04-18T05:29:56.179Z,77.21
2023-04-18T05:32:22.866Z,77.95
2023-04-18T05:34:49.470Z,77.94
2023-04-18T05:37:15.989Z,77.96
2023-04-18T05:39:42.604Z,77.97
2023-04-18T05:42:10.782Z,78.07
2023-04-18T05:44:37.313Z,77.95
2023-04-18T05:47:06.141Z,78.01
2023-04-18T05:49:35.230Z,77.92
2023-04-18T05:52:01.982Z,77.97
2023-04-18T05:54:28.984Z,77.99
2023-04-18T05:56:57.181Z,77.77
2023-04-18T05:59:26.744Z,78.62
2023-04-18T06:01:53.481Z,78.46
2023-04-18T06:04:20.828Z,78.34
2023-04-18T06:06:47.805Z,78.33
2023-04-18T06:09:14.480Z,78.27
2023-04-18T06:11:41.586Z,79.11
2023-04-18T06:14:08.433Z,79.14
2023-04-18T06:16:37.908Z,78.65
2023-04-18T06:19:05.299Z,78.99
2023-04-18T06:21:32.060Z,78.84
2023-04-18T06:24:01.326Z,78.77
2023-04-18T06:26:28.064Z,78.71
2023-04-18T06:28:54.703Z,78.48
2023-04-18T06:31:21.465Z,78.70
2023-04-18T06:33:48.289Z,78.86
2023-04-18T06:36:15.181Z,78.56
2023-04-18T06:38:41.809Z,78.20
2023-04-18T06:41:09.421Z,78.35
2023-04-18T06:43:36.336Z,78.18
2023-04-18T06:46:05.270Z,78.15
2023-04-18T06:48:33.621Z,77.46
2023-04-18T06:51:00.160Z,77.85
2023-04-18T06:53:26.854Z,77.63
2023-04-18T06:55:53.668Z,77.04
2023-04-18T06:58:20.174Z,77.25
2023-04-18T07:00:51.632Z,77.94
2023-04-18T07:03:18.446Z,77.30
2023-04-18T07:05:45.467Z,76.43
2023-04-18T07:08:12.228Z,76.51
2023-04-18T07:10:38.748Z,77.04
2023-04-18T07:13:05.260Z,76.73
2023-04-18T07:15:31.801Z,76.46
2023-04-18T07:17:58.483Z,77.20
2023-04-18T07:20:25.150Z,77.09
2023-04-18T07:22:51.719Z,76.49
2023-04-18T07:25:19.220Z,76.66
2023-04-18T07:27:46.397Z,77.03
2023-04-18T07:30:13.577Z,77.33
2023-04-18T07:32:40.265Z,76.98
2023-04-18T07:35:07.554Z,77.21
2023-04-18T07:37:34.361Z,76.81
2023-04-18T07:40:00.954Z,77.06
2023-04-18T07:42:27.819Z,76.06
2023-04-18T07:44:58.864Z,76.55
2023-04-18T07:47:29.953Z,77.03
2023-04-18T07:49:57.514Z,75.62
2023-04-18T07:52:24.232Z,75.79
2023-04-18T07:54:51.128Z,75.11
2023-04-18T07:57:17.723Z,75.73
2023-04-18T07:59:44.343Z,75.68
2023-04-18T08:02:10.993Z,74.15
2023-04-18T08:04:37.646Z,73.73
2023-04-18T08:07:04.433Z,73.91
2023-04-18T08:09:30.950Z,72.80
2023-04-18T08:11:59.291Z,71.51
2023-04-18T08:14:25.866Z,70.55
2023-04-18T08:16:52.467Z,72.27
2023-04-18T08:19:19.094Z,70.81
2023-04-18T08:21:45.735Z,71.63
2023-04-18T08:24:12.407Z,71.33
2023-04-18T08:26:38.945Z,68.89
2023-04-18T08:29:06.336Z,67.63
2023-04-18T08:31:32.957Z,67.27
2023-04-18T08:33:59.577Z,68.05
2023-04-18T08:36:26.840Z,67.60
2023-04-18T08:38:53.399Z,65.51
2023-04-18T08:41:23.394Z,67.70
2023-04-18T08:43:50.069Z,68.00
2023-04-18T08:46:17.265Z,67.97
2023-04-18T08:48:44.507Z,67.86
2023-04-18T08:51:11.418Z,68.53
2023-04-18T08:53:39.560Z,69.17
2023-04-18T08:56:10.251Z,68.31
2023-04-18T08:58:37.179Z,67.33
2023-04-18T09:01:03.857Z,66.59
2023-04-18T09:03:39.624Z,67.79
2023-04-18T09:06:08.413Z,68.85
2023-04-18T09:08:35.466Z,69.10
2023-04-18T09:11:26.080Z,68.87
2023-04-18T09:13:56.140Z,67.91
2023-04-18T09:16:23.337Z,67.38
2023-04-18T09:19:19.348Z,68.45
2023-04-18T09:21:48.724Z,67.00
2023-04-18T09:24:21.360Z,68.38
2023-04-18T09:26:50.115Z,67.19
2023-04-18T09:29:20.567Z,65.86
2023-04-18T09:32:01.322Z,66.03
2023-04-18T09:34:29.095Z,63.87
2023-04-18T09:37:10.585Z,64.29
2023-04-18T09:39:41.156Z,64.81
2023-04-18T09:42:08.640Z,64.79
2023-04-18T09:44:35.285Z,65.92
2023-04-18T09:47:01.848Z,64.59
2023-04-18T09:49:28.892Z,64.77
2023-04-18T09:51:56.109Z,65.32
2023-04-18T09:54:32.528Z,65.32
2023-04-18T09:57:02.828Z,65.33
2023-04-18T09:59:41.424Z,64.50
2023-04-18T10:02:16.409Z,66.19
2023-04-18T10:04:46.821Z,65.38
2023-04-18T10:07:16.661Z,66.91
2023-04-18T10:09:46.520Z,67.65
2023-04-18T10:12:14.573Z,65.81
2023-04-18T10:14:43.118Z,67.45
2023-04-18T10:17:11.671Z,67.04
2023-04-18T10:19:41.928Z,67.72
2023-04-18T10:22:08.697Z,67.22
2023-04-18T10:24:56.087Z,68.00
2023-04-18T10:27:47.497Z,68.60
2023-04-18T10:30:15.756Z,67.27
2023-04-18T10:32:42.556Z,66.72
2023-04-18T10:35:11.165Z,67.30
2023-04-18T10:37:51.492Z,65.57
2023-04-18T10:40:34.922Z,65.54
2023-04-18T10:43:01.560Z,67.59
2023-04-18T10:45:33.049Z,65.69
2023-04-18T10:51:20.556Z,65.85
2023-04-18T10:53:52.326Z,66.04
2023-04-18T10:56:19.137Z,62.80
2023-04-18T10:58:50.954Z,62.75
2023-04-18T11:01:28.508Z,62.21
2023-04-18T11:03:57.243Z,60.48
2023-04-18T11:06:27.108Z,60.73
2023-04-18T11:09:11.239Z,62.82
2023-04-18T11:11:37.785Z,61.78
2023-04-18T11:14:04.296Z,58.37
2023-04-18T11:16:35.348Z,60.83
2023-04-18T11:19:20.870Z,60.13
2023-04-18T11:21:47.565Z,60.94
2023-04-18T11:24:23.009Z,61.02
2023-04-18T11:26:49.758Z,61.14
2023-04-18T11:29:17.997Z,60.82
2023-04-18T11:31:51.386Z,61.63
2023-04-18T11:34:17.937Z,61.20
2023-04-18T11:36:48.840Z,62.72
2023-04-18T11:39:15.393Z,62.46
2023-04-18T11:41:46.516Z,62.05
2023-04-18T11:44:13.215Z,63.26
2023-04-18T11:46:39.906Z,62.83
2023-04-18T11:49:06.516Z,62.96
2023-04-18T11:51:40.095Z,63.09
2023-04-18T11:54:26.991Z,63.55
2023-04-18T11:56:53.678Z,63.37
2023-04-18T11:59:20.215Z,63.72
2023-04-18T12:01:47.109Z,64.13
2023-04-18T12:04:14.246Z,64.40
2023-04-18T12:06:53.579Z,64.27
2023-04-18T12:09:25.035Z,64.19
2023-04-18T12:12:02.774Z,63.89
2023-04-18T12:14:30.127Z,65.29
2023-04-18T12:16:56.699Z,63.16
2023-04-18T12:19:28.082Z,63.28
2023-04-18T12:22:05.085Z,63.75
2023-04-18T12:24:32.425Z,63.96
2023-04-18T12:26:59.565Z,62.97
2023-04-18T12:29:28.678Z,63.31
2023-04-18T12:31:55.534Z,62.87
2023-04-18T12:34:22.175Z,62.87
2023-04-18T12:36:48.826Z,63.52
2023-04-18T12:39:15.354Z,63.01
2023-04-18T12:41:42.317Z,63.90
2023-04-18T12:44:09.271Z,64.04
2023-04-18T12:46:35.982Z,65.05
2023-04-18T12:49:02.694Z,63.69
2023-04-18T12:51:31.421Z,62.24
2023-04-18T12:53:59.051Z,63.37
2023-04-18T12:56:25.585Z,64.53
2023-04-18T12:58:52.200Z,65.14
2023-04-18T13:01:19.785Z,64.78
2023-04-18T13:03:53.426Z,64.87
2023-04-18T13:06:27.049Z,65.05
2023-04-18T13:08:53.821Z,64.50
2023-04-18T13:11:22.374Z,65.45
2023-04-18T13:13:49.010Z,64.15
2023-04-18T13:16:16.146Z,64.96
2023-04-18T13:18:42.681Z,65.93
2023-04-18T13:21:09.421Z,66.03
2023-04-18T13:23:35.987Z,65.14
2023-04-18T13:26:02.550Z,66.18
2023-04-18T13:28:30.295Z,64.99
2023-04-18T13:30:56.852Z,65.60
2023-04-18T13:33:23.417Z,64.72
2023-04-18T13:35:50.004Z,64.98
2023-04-18T13:38:16.576Z,65.60
2023-04-18T13:40:43.132Z,65.11
2023-04-18T13:43:12.753Z,65.87
2023-04-18T13:45:39.372Z,65.01
2023-04-18T13:48:06.614Z,64.78
2023-04-18T13:50:33.239Z,64.39
2023-04-18T13:52:59.776Z,64.01
2023-04-18T13:55:26.935Z,63.93
2023-04-18T13:57:53.515Z,65.29
2023-04-18T14:00:20.341Z,64.71
2023-04-18T14:02:47.043Z,65.67
2023-04-18T14:05:14.014Z,64.15
2023-04-18T14:07:40.637Z,63.23
2023-04-18T14:10:07.707Z,63.10
2023-04-18T14:12:34.475Z,62.32
2023-04-18T14:15:01.317Z,62.91
2023-04-18T14:17:27.884Z,63.33
2023-04-18T14:19:54.499Z,63.03
2023-04-18T14:22:21.093Z,62.39
2023-04-18T14:24:47.708Z,62.33
2023-04-18T14:27:14.466Z,62.00
2023-04-18T14:29:41.102Z,62.73
2023-04-18T14:32:07.857Z,62.85
2023-04-18T14:34:36.661Z,62.20
2023-04-18T14:37:04.377Z,61.96
2023-04-18T14:39:31.123Z,62.73
2023-04-18T14:41:57.881Z,62.52
2023-04-18T14:44:24.472Z,63.21
2023-04-18T14:46:51.201Z,62.99
2023-04-18T14:49:17.938Z,62.70
2023-04-18T14:51:45.000Z,63.47
2023-04-18T14:54:11.572Z,62.28
2023-04-18T14:56:38.130Z,62.40
2023-04-18T14:59:04.859Z,61.79
2023-04-18T15:01:31.780Z,62.41
2023-04-18T15:03:59.368Z,62.39
2023-04-18T15:06:27.180Z,62.31
2023-04-18T15:08:53.752Z,62.23
2023-04-18T15:11:20.313Z,62.43
2023-04-18T15:13:47.518Z,61.77
2023-04-18T15:16:14.200Z,61.77
2023-04-18T15:18:40.967Z,62.31
2023-04-18T15:21:07.525Z,61.58
2023-04-18T15:23:34.139Z,61.70
2023-04-18T15:26:01.016Z,59.37
2023-04-18T15:28:27.702Z,60.28
2023-04-18T15:30:54.360Z,61.97
2023-04-18T15:33:21.126Z,60.88
2023-04-18T15:35:47.847Z,61.40
2023-04-18T15:38:14.398Z,61.20
2023-04-18T15:40:41.020Z,61.51
2023-04-18T15:43:08.001Z,61.44
2023-04-18T15:45:34.934Z,61.09
2023-04-18T15:48:02.045Z,61.29
2023-04-18T15:50:28.818Z,60.71
2023-04-18T15:52:56.314Z,62.08
2023-04-18T15:55:23.085Z,61.22
2023-04-18T15:57:49.617Z,61.33
2023-04-18T16:00:16.729Z,62.24
2023-04-18T16:02:45.180Z,61.58
2023-04-18T16:05:13.078Z,61.28
2023-04-18T16:07:41.296Z,61.51
2023-04-18T16:10:10.296Z,61.68
2023-04-18T16:12:38.052Z,61.24
2023-04-18T16:15:09.417Z,61.30
2023-04-18T16:17:37.093Z,61.56
2023-04-18T16:20:05.973Z,61.96
2023-04-18T16:22:32.573Z,62.34
2023-04-18T16:24:59.168Z,60.50
2023-04-18T16:27:26.441Z,59.22
2023-04-18T16:29:53.641Z,59.51
2023-04-18T16:32:20.410Z,59.52
2023-04-18T16:34:47.179Z,60.36
2023-04-18T16:37:13.792Z,61.18
2023-04-18T16:39:40.384Z,61.22
2023-04-18T16:42:06.946Z,61.55
2023-04-18T16:44:33.581Z,61.42
2023-04-18T16:47:00.410Z,61.70
2023-04-18T16:49:27.023Z,62.24
2023-04-18T16:51:53.541Z,60.95
2023-04-18T16:54:20.116Z,61.83
2023-04-18T16:56:46.739Z,62.25
2023-04-18T16:59:13.575Z,61.35
2023-04-18T17:01:40.359Z,62.25
2023-04-18T17:04:07.154Z,62.44
2023-04-18T17:06:36.610Z,62.88
2023-04-18T17:09:06.142Z,61.77
2023-04-18T17:11:38.792Z,61.85
2023-04-18T17:14:06.334Z,61.55
2023-04-18T17:16:32.931Z,61.79
2023-04-18T17:18:59.508Z,61.36
2023-04-18T17:21:27.435Z,62.14
2023-04-18T17:23:54.606Z,61.99
2023-04-18T17:26:24.082Z,62.32
2023-04-18T17:28:50.599Z,62.81
2023-04-18T17:31:17.237Z,62.57
2023-04-18T17:33:44.623Z,62.97
2023-04-18T17:36:11.318Z,62.59
2023-04-18T17:38:37.918Z,62.65
2023-04-18T17:41:05.617Z,62.44
2023-04-18T17:43:32.592Z,63.23
2023-04-18T17:46:03.326Z,62.59
2023-04-18T17:48:29.914Z,62.81
2023-04-18T17:50:56.688Z,63.00
2023-04-18T17:53:23.338Z,62.89
2023-04-18T17:55:52.168Z,63.03
2023-04-18T17:58:19.928Z,63.21
2023-04-18T18:00:46.600Z,63.66
2023-04-18T18:03:14.476Z,63.26
2023-04-18T18:05:42.078Z,64.04
2023-04-18T18:08:08.733Z,63.74
2023-04-18T18:10:35.372Z,63.84
2023-04-18T18:13:01.978Z,64.01
2023-04-18T18:15:28.764Z,64.34
2023-04-18T18:17:55.734Z,64.41
2023-04-18T18:20:22.375Z,64.63
2023-04-18T18:22:49.116Z,64.67
2023-04-18T18:25:15.714Z,64.99
2023-04-18T18:27:42.368Z,64.99
2023-04-18T18:30:09.695Z,65.29
2023-04-18T18:32:36.333Z,64.83
2023-04-18T18:35:03.006Z,65.10
2023-04-18T18:37:29.852Z,65.07
2023-04-18T18:39:56.637Z,65.24
2023-04-18T18:42:24.099Z,65.03
2023-04-18T18:44:50.692Z,65.60
2023-04-18T18:47:20.060Z,66.69
2023-04-18T18:49:51.993Z,66.80
2023-04-18T18:52:18.632Z,67.15
2023-04-18T18:54:45.158Z,66.03
2023-04-18T18:57:11.761Z,65.96
2023-04-18T18:59:38.360Z,66.00
2023-04-18T19:02:05.087Z,66.05
2023-04-18T19:04:32.346Z,66.12
2023-04-18T19:06:59.343Z,66.83
2023-04-18T19:09:26.044Z,66.59
2023-04-18T19:11:52.749Z,66.46
2023-04-18T19:14:19.395Z,66.94
2023-04-18T19:16:46.294Z,66.81
2023-04-18T19:19:13.107Z,66.49
2023-04-18T19:21:45.561Z,66.65
2023-04-18T19:24:12.925Z,66.78
2023-04-18T19:26:41.740Z,66.19
2023-04-18T19:29:10.609Z,66.56
2023-04-18T19:31:37.291Z,66.62
2023-04-18T19:34:03.922Z,66.62
2023-04-18T19:36:31.795Z,66.73
2023-04-18T19:38:58.368Z,67.17
2023-04-18T19:41:25.894Z,66.73
2023-04-18T19:43:52.398Z,66.93
2023-04-18T19:46:18.966Z,66.92
2023-04-18T19:48:45.516Z,67.26
2023-04-18T19:51:12.097Z,67.49
2023-04-18T19:53:38.874Z,67.37
2023-04-18T19:56:05.623Z,67.37
2023-04-18T19:58:44.755Z,67.57
2023-04-18T20:01:13.882Z,67.45
2023-04-18T20:03:40.865Z,67.07
2023-04-18T20:06:08.540Z,67.55
2023-04-18T20:08:36.939Z,67.64
2023-04-18T20:11:11.455Z,67.77
2023-04-18T20:13:38.126Z,67.71
2023-04-18T20:16:06.328Z,67.63
2023-04-18T20:18:35.622Z,67.77
2023-04-18T20:21:03.831Z,67.91
2023-04-18T20:23:30.423Z,67.87
2023-04-18T20:25:56.985Z,67.81
2023-04-18T20:28:23.662Z,68.10
2023-04-18T20:30:50.364Z,68.13
2023-04-18T20:33:16.974Z,68.08
2023-04-18T20:35:44.520Z,68.40
2023-04-18T20:38:12.313Z,68.48
2023-04-18T20:40:39.016Z,68.18
2023-04-18T20:43:06.774Z,68.07
2023-04-18T20:45:37.430Z,68.45
2023-04-18T20:48:04.384Z,68.21
2023-04-18T20:50:30.958Z,68.16
2023-04-18T20:53:00.355Z,68.23
2023-04-18T20:55:27.029Z,68.58
2023-04-18T20:57:53.616Z,68.56
2023-04-18T21:00:20.215Z,68.22
2023-04-18T21:02:46.863Z,68.73
2023-04-18T21:05:13.541Z,68.70
2023-04-18T21:07:40.205Z,68.80
2023-04-18T21:10:07.240Z,68.70
2023-04-18T21:12:33.885Z,68.95
2023-04-18T21:15:00.443Z,68.42
2023-04-18T21:17:27.054Z,68.92
2023-04-18T21:19:54.886Z,68.70
2023-04-18T21:22:21.572Z,68.75
2023-04-18T21:24:48.114Z,69.02
2023-04-18T21:27:15.877Z,69.21
2023-04-18T21:29:42.445Z,69.06
2023-04-18T21:32:09.143Z,69.09
2023-04-18T21:34:35.725Z,69.66
2023-04-18T21:37:02.465Z,69.50
2023-04-18T21:39:28.977Z,69.27
2023-04-18T21:41:55.672Z,69.21
2023-04-18T21:44:22.271Z,69.63
2023-04-18T21:46:48.765Z,69.77
2023-04-18T21:49:15.555Z,69.56
2023-04-18T21:51:42.072Z,69.42
2023-04-18T21:54:08.845Z,69.89
2023-04-18T21:56:35.720Z,70.32
2023-04-18T21:59:02.229Z,70.12
2023-04-18T22:01:29.084Z,70.74
2023-04-18T22:03:56.088Z,70.68
2023-04-18T22:06:23.291Z,70.56
2023-04-18T22:08:51.549Z,70.37
2023-04-18T22:11:18.958Z,70.71
2023-04-18T22:13:47.295Z,70.91
2023-04-18T22:16:13.948Z,71.13
2023-04-18T22:18:40.911Z,70.75
2023-04-18T22:21:09.452Z,71.37
2023-04-18T22:23:36.008Z,71.15
2023-04-18T22:26:02.525Z,71.41
2023-04-18T22:28:29.168Z,71.59
2023-04-18T22:30:55.756Z,71.78
2023-04-18T22:33:22.468Z,71.92
2023-04-18T22:35:49.138Z,71.52
2023-04-18T22:38:16.152Z,71.83
2023-04-18T22:40:42.766Z,71.89
2023-04-18T22:43:09.302Z,72.52
2023-04-18T22:45:35.813Z,72.52
2023-04-18T22:48:02.379Z,72.38
2023-04-18T22:50:30.073Z,71.97
2023-04-18T22:52:57.257Z,72.65
2023-04-18T22:55:23.808Z,73.12
2023-04-18T22:57:50.420Z,72.54
2023-04-18T23:00:17.065Z,72.94
2023-04-18T23:02:44.064Z,73.31
2023-04-18T23:05:11.507Z,72.77
2023-04-18T23:07:38.216Z,73.53
2023-04-18T23:10:06.526Z,73.06
2023-04-18T23:12:33.278Z,73.79
2023-04-18T23:14:59.855Z,73.24
2023-04-18T23:17:26.439Z,74.16
2023-04-18T23:19:52.994Z,74.28
2023-04-18T23:22:20.304Z,73.09
2023-04-18T23:24:46.844Z,73.22
2023-04-18T23:27:13.346Z,74.18
2023-04-18T23:29:39.941Z,73.42
2023-04-18T23:32:06.600Z,73.48
2023-04-18T23:34:33.279Z,74.47
2023-04-18T23:37:00.573Z,73.91
2023-04-18T23:39:27.161Z,73.66
2023-04-18T23:41:53.668Z,73.75
2023-04-18T23:44:20.256Z,73.70
2023-04-18T23:46:47.325Z,74.80
2023-04-18T23:49:14.241Z,74.68
2023-04-18T23:51:40.799Z,75.01
2023-04-18T23:54:07.539Z,75.00
2023-04-18T23:56:34.483Z,74.94
2023-04-18T23:59:01.076Z,74.37
